Time;durP1;ratioP1;P1;durP2;ratioP2;P2;SDS_P1;SDS_P2;PMS_P1;PMS_P2;Temp;Humidity;BMP_temperature;BMP_pressure;BME280_temperature;BME280_humidity;BME280_pressure;Samples;Min_cycle;Max_cycle;Signal;HPM_P1;HPM_P2
2021/07/19 00:02:09;;;;;;;2.53;2.33;;;26.70;92.30;;;;;;5026904;28;20887;-73
2021/07/19 00:04:41;;;;;;;2.92;2.40;;;26.60;92.40;;;;;;5058346;28;20049;-73
2021/07/19 00:07:11;;;;;;;2.90;2.38;;;26.60;92.30;;;;;;5059009;28;20044;-72
2021/07/19 00:09:44;;;;;;;3.40;2.63;;;26.60;92.30;;;;;;5056557;28;20046;-72
2021/07/19 00:12:15;;;;;;;3.00;2.70;;;26.50;91.70;;;;;;5048530;28;20056;-72
2021/07/19 00:14:48;;;;;;;3.35;2.70;;;26.50;92.00;;;;;;5043709;28;20140;-73
2021/07/19 00:17:20;;;;;;;3.13;2.70;;;26.50;92.00;;;;;;5054227;28;20103;-73
2021/07/19 00:19:50;;;;;;;3.72;2.55;;;26.50;92.20;;;;;;5062655;28;20056;-73
2021/07/19 00:22:20;;;;;;;5.10;3.03;;;26.50;92.40;;;;;;5041514;28;20093;-73
2021/07/19 00:24:50;;;;;;;3.53;2.63;;;26.50;92.60;;;;;;5040061;28;20036;-73
2021/07/19 00:27:20;;;;;;;4.88;2.60;;;26.40;92.60;;;;;;5039109;28;20067;-73
2021/07/19 00:29:52;;;;;;;3.25;2.60;;;26.40;92.90;;;;;;5054571;28;20048;-73
2021/07/19 00:32:21;;;;;;;3.35;2.53;;;26.40;93.10;;;;;;5052535;28;20037;-73
2021/07/19 00:34:53;;;;;;;3.25;2.78;;;26.40;93.30;;;;;;5039870;28;20044;-73
2021/07/19 00:37:23;;;;;;;3.00;2.63;;;26.30;93.50;;;;;;5045648;28;20044;-73
2021/07/19 00:39:52;;;;;;;2.92;2.50;;;26.30;93.50;;;;;;5041746;28;20037;-73
2021/07/19 00:42:23;;;;;;;3.30;2.70;;;26.30;93.40;;;;;;5061045;28;20068;-73
2021/07/19 00:44:54;;;;;;;5.60;2.90;;;26.20;93.60;;;;;;5045716;28;20051;-73
2021/07/19 00:47:29;;;;;;;2.60;2.38;;;26.30;93.90;;;;;;5032665;28;20045;-74
2021/07/19 00:49:58;;;;;;;2.75;2.30;;;26.20;94.10;;;;;;5056948;28;20053;-73
2021/07/19 00:52:28;;;;;;;3.40;2.60;;;26.30;94.20;;;;;;5042620;28;20040;-73
2021/07/19 00:54:59;;;;;;;4.45;2.85;;;26.30;94.50;;;;;;5058889;28;20048;-73
2021/07/19 00:57:30;;;;;;;4.15;2.97;;;26.20;94.70;;;;;;5044205;28;20040;-73
2021/07/19 01:00:07;;;;;;;2.88;2.33;;;26.20;94.80;;;;;;5045267;28;20039;-73
2021/07/19 01:02:41;;;;;;;3.08;2.88;;;26.10;95.10;;;;;;5061265;28;20789;-73
2021/07/19 01:05:12;;;;;;;3.20;2.65;;;26.00;95.30;;;;;;5058617;28;20175;-73
2021/07/19 01:07:44;;;;;;;4.80;3.05;;;25.90;95.70;;;;;;5059096;28;20037;-73
2021/07/19 01:10:17;;;;;;;3.75;2.80;;;25.90;95.80;;;;;;5039770;28;20064;-73
2021/07/19 01:12:52;;;;;;;4.07;2.83;;;25.80;96.10;;;;;;5047940;28;20109;-74
2021/07/19 01:15:27;;;;;;;4.45;3.20;;;25.80;96.30;;;;;;5044224;28;20041;-73
2021/07/19 01:17:58;;;;;;;4.35;2.42;;;25.80;96.60;;;;;;5043640;28;20094;-73
2021/07/19 01:20:32;;;;;;;4.30;3.00;;;25.80;96.70;;;;;;5045519;28;20558;-73
2021/07/19 01:23:40;;;;;;;3.22;2.92;;;25.80;96.70;;;;;;5039643;28;20056;-73
2021/07/19 01:26:40;;;;;;;3.63;3.05;;;25.60;96.70;;;;;;5043214;28;20071;-73
2021/07/19 01:29:14;;;;;;;3.60;2.60;;;25.50;96.70;;;;;;5059713;28;20466;-73
2021/07/19 01:31:47;;;;;;;4.28;3.47;;;25.30;96.70;;;;;;5066949;28;20044;-73
2021/07/19 01:34:22;;;;;;;3.78;2.83;;;25.30;96.70;;;;;;5047715;28;20053;-73
2021/07/19 01:36:55;;;;;;;3.58;2.47;;;25.30;96.70;;;;;;5064962;28;20036;-73
2021/07/19 01:39:52;;;;;;;6.60;3.00;;;25.30;96.70;;;;;;5029385;28;20040;-73
2021/07/19 01:42:23;;;;;;;5.15;3.08;;;25.30;96.70;;;;;;5038765;28;20510;-73
2021/07/19 01:44:56;;;;;;;3.38;2.65;;;25.30;96.70;;;;;;5060163;28;20036;-73
2021/07/19 01:47:27;;;;;;;5.93;2.95;;;25.40;96.70;;;;;;5065124;28;20047;-73
2021/07/19 01:50:00;;;;;;;6.93;3.40;;;25.40;96.70;;;;;;5029455;28;20051;-74
2021/07/19 01:52:39;;;;;;;4.82;3.20;;;25.40;96.70;;;;;;5029446;28;20978;-73
2021/07/19 01:55:13;;;;;;;3.33;2.88;;;25.40;96.70;;;;;;5029294;28;20048;-73
2021/07/19 01:57:44;;;;;;;3.35;3.05;;;25.40;96.70;;;;;;5045376;28;20064;-73
2021/07/19 02:00:17;;;;;;;3.42;2.88;;;25.30;96.70;;;;;;5053888;28;20076;-73
2021/07/19 02:03:03;;;;;;;4.13;2.72;;;25.30;96.70;;;;;;5042516;28;20134;-73
2021/07/19 02:05:38;;;;;;;5.80;3.38;;;25.20;96.70;;;;;;5060761;28;20162;-73
2021/07/19 02:08:10;;;;;;;4.00;3.00;;;25.20;96.70;;;;;;5058545;28;20039;-73
2021/07/19 02:10:56;;;;;;;3.53;2.97;;;25.10;96.70;;;;;;5046564;28;20048;-73
2021/07/19 02:13:31;;;;;;;5.10;3.20;;;25.00;96.70;;;;;;5040002;28;20081;-73
2021/07/19 02:16:05;;;;;;;3.70;2.83;;;24.90;96.70;;;;;;5066445;28;20095;-73
2021/07/19 02:18:39;;;;;;;4.90;3.50;;;24.80;96.70;;;;;;5056354;28;20085;-72
2021/07/19 02:21:10;;;;;;;6.30;3.65;;;24.90;96.70;;;;;;5048158;28;20052;-73
2021/07/19 02:24:02;;;;;;;6.35;2.95;;;24.80;96.70;;;;;;5059674;28;20049;-73
2021/07/19 02:26:57;;;;;;;5.20;3.28;;;24.80;96.70;;;;;;5062763;28;20059;-73
2021/07/19 02:29:30;;;;;;;3.50;2.88;;;24.70;96.70;;;;;;5018243;28;20048;-73
2021/07/19 02:32:02;;;;;;;3.50;2.88;;;24.80;96.70;;;;;;5031316;28;20041;-73
2021/07/19 02:34:36;;;;;;;3.70;2.88;;;24.80;96.70;;;;;;5062295;28;20092;-73
2021/07/19 02:37:08;;;;;;;3.78;2.83;;;24.90;96.70;;;;;;5045317;28;20518;-73
2021/07/19 02:39:52;;;;;;;3.35;2.85;;;24.90;96.70;;;;;;5031111;28;20466;-73
2021/07/19 02:42:21;;;;;;;7.38;3.30;;;24.90;96.70;;;;;;5047454;28;20045;-73
2021/07/19 02:44:50;;;;;;;3.35;3.05;;;24.90;96.70;;;;;;5042170;28;20466;-73
2021/07/19 02:47:32;;;;;;;3.60;2.58;;;24.90;96.70;;;;;;5044186;28;20048;-73
2021/07/19 02:50:01;;;;;;;3.08;2.63;;;24.80;96.70;;;;;;5060222;28;20048;-73
2021/07/19 02:52:30;;;;;;;3.40;3.08;;;24.80;96.70;;;;;;5041185;28;20060;-73
2021/07/19 02:55:00;;;;;;;4.07;3.08;;;24.90;96.70;;;;;;5062629;28;20059;-73
2021/07/19 02:57:38;;;;;;;5.32;2.88;;;25.00;96.70;;;;;;5054262;28;20323;-73
2021/07/19 03:00:10;;;;;;;3.70;2.90;;;25.00;96.70;;;;;;5062390;28;20437;-73
2021/07/19 03:02:51;;;;;;;3.40;2.90;;;25.10;96.70;;;;;;5039140;28;20045;-73
2021/07/19 03:05:28;;;;;;;3.63;3.30;;;25.10;96.70;;;;;;5063017;28;20056;-74
2021/07/19 03:08:05;;;;;;;4.28;3.33;;;25.10;96.70;;;;;;5061719;28;20053;-73
2021/07/19 03:11:15;;;;;;;4.68;2.90;;;25.20;96.70;;;;;;4986622;28;20054;-73
2021/07/19 03:13:53;;;;;;;3.85;3.10;;;25.20;96.70;;;;;;4973537;28;20515;-72
2021/07/19 03:16:26;;;;;;;3.55;3.10;;;25.20;96.70;;;;;;4978870;28;20488;-73
2021/07/19 03:19:00;;;;;;;3.72;3.33;;;25.20;96.70;;;;;;4962334;28;20061;-72
2021/07/19 03:21:31;;;;;;;3.75;3.08;;;25.10;96.70;;;;;;4966912;28;20085;-73
2021/07/19 03:24:10;;;;;;;7.18;3.50;;;25.10;96.70;;;;;;4981281;28;20464;-73
2021/07/19 03:26:43;;;;;;;6.00;3.92;;;25.00;96.70;;;;;;4981848;28;20137;-74
2021/07/19 03:29:14;;;;;;;4.05;3.35;;;25.00;96.70;;;;;;4963954;28;20523;-73
2021/07/19 03:32:04;;;;;;;4.78;3.47;;;25.00;96.70;;;;;;4981971;28;20107;-73
2021/07/19 03:34:40;;;;;;;4.78;3.78;;;24.90;96.70;;;;;;4978176;28;20042;-73
2021/07/19 03:37:15;;;;;;;4.32;3.72;;;24.90;96.70;;;;;;4982758;28;20054;-73
2021/07/19 03:39:45;;;;;;;6.18;4.03;;;24.80;96.70;;;;;;4981656;28;20555;-73
2021/07/19 03:42:42;;;;;;;5.25;4.05;;;24.70;96.70;;;;;;5012793;28;20053;-73
2021/07/19 03:45:12;;;;;;;5.63;4.10;;;24.70;96.70;;;;;;5037836;28;20136;-73
2021/07/19 03:48:01;;;;;;;5.32;4.03;;;24.60;96.70;;;;;;5033459;28;20032;-74
2021/07/19 03:50:37;;;;;;;6.32;3.80;;;24.60;96.70;;;;;;5020241;28;20233;-74
2021/07/19 03:53:08;;;;;;;3.88;3.35;;;24.60;96.70;;;;;;5038930;28;20092;-74
2021/07/19 03:55:39;;;;;;;5.30;3.97;;;24.60;96.70;;;;;;5036714;28;20040;-74
2021/07/19 03:58:10;;;;;;;4.65;3.60;;;24.60;96.70;;;;;;5015100;28;20365;-74
2021/07/19 04:00:43;;;;;;;3.72;3.35;;;24.60;96.70;;;;;;5039434;28;20037;-75
2021/07/19 04:03:24;;;;;;;6.28;3.70;;;24.60;96.70;;;;;;5038725;28;20147;-74
2021/07/19 04:05:59;;;;;;;7.80;4.88;;;24.40;96.70;;;;;;5025672;28;20140;-74
2021/07/19 04:09:21;;;;;;;3.95;3.47;;;24.10;96.70;;;;;;5036910;28;20157;-74
2021/07/19 04:11:52;;;;;;;4.80;3.50;;;23.90;96.70;;;;;;5041216;28;20033;-74
2021/07/19 04:14:39;;;;;;;4.32;3.80;;;23.80;96.70;;;;;;5029174;28;20087;-74
2021/07/19 04:17:08;;;;;;;;;;;23.80;96.70;;;;;;5033964;28;20060;-74
2021/07/19 04:19:55;;;;;;;4.53;3.67;;;24.00;96.70;;;;;;5031937;28;19932;-75
2021/07/19 04:22:28;;;;;;;3.80;3.40;;;24.10;96.70;;;;;;5037933;28;20393;-74
2021/07/19 04:25:10;;;;;;;5.25;3.90;;;24.10;96.70;;;;;;5026525;28;20140;-74
2021/07/19 04:27:42;;;;;;;4.18;3.55;;;24.10;96.70;;;;;;5046176;28;20040;-74
2021/07/19 04:30:13;;;;;;;4.47;3.58;;;24.10;96.70;;;;;;5025196;28;20476;-74
2021/07/19 04:32:52;;;;;;;6.35;3.58;;;24.20;96.70;;;;;;5026932;28;20041;-74
2021/07/19 04:35:22;;;;;;;5.82;3.60;;;24.30;96.70;;;;;;5032104;28;20140;-74
2021/07/19 04:37:53;;;;;;;3.70;3.40;;;24.30;96.70;;;;;;5036610;28;20453;-74
2021/07/19 04:40:25;;;;;;;3.78;3.35;;;24.30;96.70;;;;;;5039246;28;20049;-74
2021/07/19 04:42:56;;;;;;;6.50;3.97;;;24.30;96.70;;;;;;5038839;28;20053;-74
2021/07/19 04:45:24;;;;;;;6.47;4.07;;;24.40;96.70;;;;;;5036276;28;20471;-74
2021/07/19 04:47:52;;;;;;;4.35;3.67;;;24.40;96.70;;;;;;5016004;28;20053;-74
2021/07/19 04:50:21;;;;;;;4.55;3.17;;;24.40;96.70;;;;;;5034953;28;20037;-74
2021/07/19 04:53:17;;;;;;;5.75;3.60;;;24.50;96.70;;;;;;5032909;28;20045;-74
2021/07/19 04:55:48;;;;;;;3.65;3.10;;;24.50;96.70;;;;;;5035523;28;20060;-74
2021/07/19 04:58:20;;;;;;;5.35;3.40;;;24.60;96.70;;;;;;5039077;28;20045;-74
2021/07/19 05:00:51;;;;;;;4.07;3.55;;;24.60;96.70;;;;;;5033715;28;20155;-75
2021/07/19 05:03:24;;;;;;;5.40;3.67;;;24.70;96.70;;;;;;5022375;28;20059;-74
2021/07/19 05:05:55;;;;;;;5.75;3.40;;;24.80;96.70;;;;;;5038415;28;20046;-74
2021/07/19 05:08:25;;;;;;;5.95;3.75;;;24.80;96.70;;;;;;5037531;28;20037;-74
2021/07/19 05:10:54;;;;;;;3.80;3.40;;;24.90;96.70;;;;;;5037149;28;20051;-74
2021/07/19 05:13:23;;;;;;;5.95;3.60;;;25.00;96.70;;;;;;5041759;28;20047;-74
2021/07/19 05:15:52;;;;;;;4.30;3.90;;;25.10;96.70;;;;;;5039624;28;20674;-74
2021/07/19 05:18:21;;;;;;;4.53;3.72;;;25.20;96.70;;;;;;5056322;28;20052;-74
2021/07/19 05:20:50;;;;;;;5.68;4.25;;;25.00;96.70;;;;;;5053126;28;20049;-74
2021/07/19 05:23:22;;;;;;;7.00;4.13;;;25.00;96.70;;;;;;5061434;28;20692;-74
2021/07/19 05:25:53;;;;;;;4.68;4.20;;;24.90;96.70;;;;;;5044524;28;20796;-74
2021/07/19 05:28:21;;;;;;;5.35;3.58;;;25.00;96.70;;;;;;5043104;28;20188;-74
2021/07/19 05:30:51;;;;;;;4.57;3.60;;;25.10;96.70;;;;;;5040721;28;20090;-74
2021/07/19 05:33:21;;;;;;;8.88;4.68;;;25.20;96.70;;;;;;5061147;28;20524;-74
2021/07/19 05:35:50;;;;;;;5.93;3.92;;;25.30;96.70;;;;;;5042443;28;20049;-74
2021/07/19 05:38:19;;;;;;;5.82;3.63;;;25.40;96.70;;;;;;5058598;28;20036;-74
2021/07/19 05:40:53;;;;;;;6.68;3.58;;;25.50;96.70;;;;;;5039541;28;20098;-74
2021/07/19 05:43:22;;;;;;;4.43;3.40;;;25.50;96.70;;;;;;5044071;28;20406;-74
2021/07/19 05:45:50;;;;;;;6.88;3.83;;;25.60;96.70;;;;;;5061521;28;20055;-74
2021/07/19 05:48:18;;;;;;;4.85;3.53;;;25.70;96.70;;;;;;5036288;28;20040;-74
2021/07/19 05:50:46;;;;;;;6.28;3.72;;;25.80;96.70;;;;;;5042815;28;20063;-74
2021/07/19 05:53:14;;;;;;;5.45;3.85;;;25.90;96.70;;;;;;5041570;28;20037;-74
2021/07/19 05:55:43;;;;;;;5.07;3.38;;;26.00;96.70;;;;;;5057625;28;20204;-74
2021/07/19 05:58:12;;;;;;;4.93;3.13;;;26.10;96.70;;;;;;5061125;28;20749;-74
2021/07/19 06:00:40;;;;;;;4.68;3.30;;;26.20;96.70;;;;;;5042257;28;20551;-74
2021/07/19 06:03:09;;;;;;;4.05;3.65;;;26.30;96.70;;;;;;5042574;28;20128;-74
2021/07/19 06:05:37;;;;;;;4.07;2.78;;;26.40;96.70;;;;;;5061766;28;20052;-75
2021/07/19 06:08:06;;;;;;;3.60;3.10;;;26.50;96.70;;;;;;5059445;28;20072;-74
2021/07/19 06:10:34;;;;;;;2.83;2.53;;;26.50;96.70;;;;;;5044459;28;20409;-74
2021/07/19 06:13:03;;;;;;;4.05;2.83;;;26.60;96.70;;;;;;5045558;28;20040;-74
2021/07/19 06:15:33;;;;;;;3.92;3.08;;;26.70;96.70;;;;;;5062810;28;20040;-74
2021/07/19 06:18:01;;;;;;;4.90;3.08;;;26.80;96.70;;;;;;5052127;28;20048;-74
2021/07/19 06:20:29;;;;;;;3.25;2.70;;;26.80;96.70;;;;;;5046395;28;20037;-74
2021/07/19 06:23:02;;;;;;;4.00;3.03;;;26.90;96.70;;;;;;5061459;28;20041;-74
2021/07/19 06:25:32;;;;;;;5.90;3.03;;;26.90;96.70;;;;;;5042607;28;20057;-74
2021/07/19 06:28:01;;;;;;;3.13;2.78;;;27.00;96.40;;;;;;5049377;28;20532;-74
2021/07/19 06:30:30;;;;;;;2.55;2.33;;;27.00;96.20;;;;;;5064250;28;20074;-74
2021/07/19 06:33:00;;;;;;;3.85;2.80;;;27.10;96.00;;;;;;5060907;28;20046;-74
2021/07/19 06:35:29;;;;;;;3.63;2.75;;;27.10;95.80;;;;;;5065392;28;20049;-74
2021/07/19 06:37:57;;;;;;;2.70;2.47;;;27.20;95.70;;;;;;5044200;28;20147;-74
2021/07/19 06:40:25;;;;;;;5.57;3.10;;;27.20;95.50;;;;;;5060726;28;20506;-74
2021/07/19 06:42:53;;;;;;;4.10;2.85;;;27.20;94.90;;;;;;5062568;28;20078;-74
2021/07/19 06:45:21;;;;;;;7.30;3.30;;;27.30;94.70;;;;;;5061925;28;20072;-74
2021/07/19 06:47:49;;;;;;;3.92;3.13;;;27.30;94.90;;;;;;5063203;28;20058;-74
2021/07/19 06:50:19;;;;;;;4.15;2.85;;;27.30;95.00;;;;;;5049184;28;20052;-74
2021/07/19 06:52:47;;;;;;;4.60;2.58;;;27.40;94.80;;;;;;5061724;28;20413;-74
2021/07/19 06:55:15;;;;;;;3.65;2.90;;;27.50;95.00;;;;;;5046820;28;20482;-74
2021/07/19 06:57:43;;;;;;;3.67;2.67;;;27.50;94.60;;;;;;5045216;28;20443;-74
2021/07/19 07:00:13;;;;;;;4.10;2.60;;;27.50;94.70;;;;;;5059878;28;20048;-74
2021/07/19 07:02:41;;;;;;;4.38;2.95;;;27.60;94.30;;;;;;5061019;28;20063;-73
2021/07/19 07:05:10;;;;;;;5.30;3.00;;;27.60;94.80;;;;;;5058573;28;20241;-73
2021/07/19 07:07:40;;;;;;;2.95;2.65;;;27.70;94.60;;;;;;5041648;28;20053;-75
2021/07/19 07:10:10;;;;;;;4.00;3.08;;;27.70;94.50;;;;;;5038825;28;20135;-76
2021/07/19 07:12:39;;;;;;;3.85;2.60;;;27.70;93.90;;;;;;5058333;28;20044;-75
2021/07/19 07:15:08;;;;;;;5.57;2.78;;;27.70;94.00;;;;;;5059415;28;20032;-76
2021/07/19 07:17:39;;;;;;;3.97;2.53;;;27.70;93.10;;;;;;5032047;28;20048;-76
2021/07/19 07:20:10;;;;;;;3.45;2.58;;;27.80;92.80;;;;;;5024348;28;20522;-74
2021/07/19 07:22:38;;;;;;;2.88;2.42;;;27.80;92.60;;;;;;5044390;28;20051;-74
2021/07/19 07:25:09;;;;;;;3.33;2.63;;;27.90;92.40;;;;;;5038385;28;20047;-75
2021/07/19 07:27:38;;;;;;;2.85;2.65;;;27.90;92.50;;;;;;5062994;28;20037;-79
2021/07/19 07:30:08;;;;;;;2.70;2.50;;;27.90;92.30;;;;;;5056434;28;20065;-78
2021/07/19 07:32:37;;;;;;;4.18;2.70;;;28.00;92.60;;;;;;5038138;28;20136;-78
2021/07/19 07:35:06;;;;;;;3.17;2.88;;;28.00;92.30;;;;;;5059627;28;20050;-77
2021/07/19 07:37:36;;;;;;;3.17;2.72;;;28.00;92.30;;;;;;5032411;28;20119;-77
2021/07/19 07:40:08;;;;;;;3.05;2.78;;;28.10;92.50;;;;;;5058006;28;20067;-77
2021/07/19 07:42:37;;;;;;;3.13;2.67;;;28.10;92.90;;;;;;5061347;28;20132;-74
2021/07/19 07:45:07;;;;;;;3.60;2.72;;;28.20;92.50;;;;;;5038196;28;20045;-74
2021/07/19 07:47:36;;;;;;;5.72;3.30;;;28.20;91.90;;;;;;5056710;28;20498;-74
2021/07/19 07:50:05;;;;;;;6.03;3.40;;;28.30;92.90;;;;;;5054019;28;20047;-74
2021/07/19 07:52:33;;;;;;;4.80;2.83;;;28.40;92.50;;;;;;5034412;28;20516;-74
2021/07/19 07:55:02;;;;;;;4.57;2.85;;;28.50;92.10;;;;;;5062318;28;20032;-75
2021/07/19 07:57:32;;;;;;;4.40;3.20;;;28.50;92.10;;;;;;5060190;28;20045;-75
2021/07/19 08:00:01;;;;;;;4.38;2.88;;;28.50;91.20;;;;;;5058986;28;20056;-75
2021/07/19 08:02:39;;;;;;;4.32;2.80;;;28.60;91.40;;;;;;5040597;28;20044;-75
2021/07/19 08:05:08;;;;;;;4.55;3.05;;;28.70;92.20;;;;;;5053867;28;20113;-75
2021/07/19 08:07:37;;;;;;;3.80;3.00;;;28.90;92.10;;;;;;5058570;28;20095;-74
2021/07/19 08:10:06;;;;;;;4.28;2.92;;;28.90;91.60;;;;;;5056346;28;20255;-75
2021/07/19 08:12:43;;;;;;;4.68;3.22;;;28.90;91.40;;;;;;5062089;28;20033;-74
2021/07/19 08:15:14;;;;;;;4.35;2.58;;;28.80;91.50;;;;;;5047475;28;20171;-75
2021/07/19 08:17:42;;;;;;;3.33;2.80;;;28.90;91.80;;;;;;5056402;28;20049;-74
2021/07/19 08:20:12;;;;;;;4.63;2.90;;;29.00;91.90;;;;;;5055667;28;20047;-75
2021/07/19 08:22:41;;;;;;;4.03;2.80;;;29.10;90.90;;;;;;5055106;28;20064;-74
2021/07/19 08:25:10;;;;;;;5.72;3.03;;;29.10;90.30;;;;;;5027428;28;20052;-74
2021/07/19 08:27:38;;;;;;;3.58;2.70;;;29.00;90.30;;;;;;5047458;28;20036;-75
2021/07/19 08:30:11;;;;;;;4.82;2.95;;;29.10;90.60;;;;;;5041082;28;20539;-75
2021/07/19 08:32:39;;;;;;;3.47;2.80;;;29.10;90.30;;;;;;5056175;28;20129;-75
2021/07/19 08:35:10;;;;;;;7.25;2.80;;;29.10;90.00;;;;;;5053875;28;20049;-75
2021/07/19 08:37:40;;;;;;;4.07;3.08;;;29.20;89.80;;;;;;5043274;28;20402;-75
2021/07/19 08:40:10;;;;;;;4.68;3.20;;;29.30;90.50;;;;;;5044541;28;20074;-74
2021/07/19 08:42:39;;;;;;;4.32;2.90;;;29.30;90.10;;;;;;5040017;28;20036;-75
2021/07/19 08:45:11;;;;;;;4.28;3.00;;;29.30;88.30;;;;;;5041802;28;20041;-74
2021/07/19 08:47:40;;;;;;;3.15;2.67;;;29.30;88.30;;;;;;5043519;28;20147;-75
2021/07/19 08:50:10;;;;;;;4.68;3.00;;;29.40;87.30;;;;;;5043538;28;20135;-75
2021/07/19 08:52:40;;;;;;;6.07;2.80;;;29.50;87.60;;;;;;5040011;28;20080;-74
2021/07/19 08:55:10;;;;;;;4.05;3.00;;;29.50;87.10;;;;;;5042379;28;20044;-74
2021/07/19 08:57:42;;;;;;;3.85;3.13;;;29.60;87.40;;;;;;5036015;28;20048;-74
2021/07/19 09:00:13;;;;;;;4.28;2.75;;;29.90;86.00;;;;;;5062290;28;20041;-75
2021/07/19 09:02:42;;;;;;;3.95;2.67;;;29.90;85.80;;;;;;5039429;28;20095;-74
2021/07/19 09:05:11;;;;;;;3.53;2.40;;;30.00;85.60;;;;;;5041354;28;20479;-74
2021/07/19 09:07:40;;;;;;;5.47;2.95;;;30.10;84.10;;;;;;5057905;28;20033;-74
2021/07/19 09:10:12;;;;;;;4.13;2.88;;;30.20;83.90;;;;;;5059196;28;20510;-75
2021/07/19 09:12:47;;;;;;;4.60;2.72;;;30.20;84.80;;;;;;5051556;28;20575;-75
2021/07/19 09:15:29;;;;;;;4.45;2.80;;;30.30;84.70;;;;;;5042825;28;20044;-75
2021/07/19 09:17:58;;;;;;;3.28;2.80;;;30.40;84.00;;;;;;5062128;28;20131;-74
2021/07/19 09:20:30;;;;;;;3.17;2.50;;;30.40;84.00;;;;;;5043383;28;20460;-75
2021/07/19 09:22:58;;;;;;;3.15;2.70;;;30.40;83.40;;;;;;5050405;28;20052;-75
2021/07/19 09:25:26;;;;;;;3.47;2.67;;;30.40;83.10;;;;;;5059152;28;20432;-74
2021/07/19 09:28:02;;;;;;;3.55;2.85;;;30.50;82.90;;;;;;5039602;28;20090;-74
2021/07/19 09:30:33;;;;;;;4.40;2.43;;;30.50;82.40;;;;;;5041116;28;20064;-74
2021/07/19 09:33:03;;;;;;;6.03;2.70;;;30.40;81.90;;;;;;5067896;28;20502;-75
2021/07/19 09:35:34;;;;;;;3.47;2.70;;;30.40;81.70;;;;;;5063521;28;20044;-75
2021/07/19 09:38:04;;;;;;;4.03;3.10;;;30.50;82.60;;;;;;5046914;28;20044;-75
2021/07/19 09:40:34;;;;;;;3.35;2.65;;;30.70;82.60;;;;;;5038505;28;20103;-75
2021/07/19 09:43:13;;;;;;;4.70;2.90;;;30.80;82.30;;;;;;5064218;28;20522;-74
2021/07/19 09:45:45;;;;;;;3.78;2.97;;;30.80;81.60;;;;;;5060761;28;20122;-75
2021/07/19 09:48:14;;;;;;;4.53;2.83;;;30.80;81.80;;;;;;5044464;28;20536;-75
2021/07/19 09:50:45;;;;;;;3.67;2.78;;;30.80;81.70;;;;;;5063770;28;20039;-75
2021/07/19 09:53:13;;;;;;;4.32;2.67;;;30.90;81.80;;;;;;5061394;28;20560;-75
2021/07/19 09:55:42;;;;;;;3.10;2.78;;;30.90;80.10;;;;;;5065071;28;20079;-74
2021/07/19 09:58:10;;;;;;;5.60;2.75;;;30.80;80.30;;;;;;5040915;28;20060;-75
2021/07/19 10:00:47;;;;;;;4.03;2.97;;;30.80;80.70;;;;;;5061707;28;20119;-75
2021/07/19 10:03:17;;;;;;;5.47;2.80;;;31.00;81.10;;;;;;5062761;28;20048;-75
2021/07/19 10:05:45;;;;;;;4.25;2.72;;;31.20;80.00;;;;;;5032655;28;20048;-75
2021/07/19 10:08:22;;;;;;;4.95;2.78;;;31.20;80.00;;;;;;5066915;28;20751;-75
2021/07/19 10:10:51;;;;;;;4.53;2.70;;;31.10;80.30;;;;;;5046357;28;20044;-75
2021/07/19 10:13:30;;;;;;;3.67;2.78;;;31.10;80.30;;;;;;5037837;28;20094;-75
2021/07/19 10:16:01;;;;;;;5.50;2.80;;;31.30;80.10;;;;;;5065024;28;20539;-75
2021/07/19 10:18:30;;;;;;;3.20;2.55;;;31.40;80.10;;;;;;5046325;28;20060;-75
2021/07/19 10:20:59;;;;;;;2.55;2.33;;;31.40;79.80;;;;;;5065636;28;20171;-75
2021/07/19 10:23:27;;;;;;;4.85;2.72;;;31.50;80.00;;;;;;5058481;28;20124;-75
2021/07/19 10:25:56;;;;;;;4.30;2.70;;;31.60;79.80;;;;;;5064267;28;20055;-74
2021/07/19 10:28:26;;;;;;;3.05;2.53;;;31.70;79.40;;;;;;5062113;28;20094;-75
2021/07/19 10:30:56;;;;;;;4.60;2.90;;;31.60;79.40;;;;;;5062570;28;20128;-75
2021/07/19 10:33:29;;;;;;;3.80;2.50;;;31.70;79.40;;;;;;5062187;28;20629;-75
2021/07/19 10:36:01;;;;;;;5.15;2.78;;;31.90;78.80;;;;;;5061245;28;20103;-75
2021/07/19 10:38:33;;;;;;;4.45;2.70;;;32.10;78.20;;;;;;5061339;28;20552;-74
2021/07/19 10:41:02;;;;;;;4.32;2.88;;;32.30;77.20;;;;;;5062144;28;20056;-74
2021/07/19 10:43:30;;;;;;;3.65;2.60;;;32.30;77.10;;;;;;5059504;28;20032;-75
2021/07/19 10:46:11;;;;;;;5.82;2.50;;;32.30;77.60;;;;;;5056459;28;20119;-75
2021/07/19 10:48:43;;;;;;;3.45;2.42;;;32.40;77.60;;;;;;5062894;28;20136;-75
2021/07/19 10:51:17;;;;;;;2.50;2.20;;;32.50;77.50;;;;;;5062165;28;20481;-75
2021/07/19 10:53:45;;;;;;;3.10;2.38;;;32.50;77.00;;;;;;5063900;28;20041;-75
2021/07/19 10:56:15;;;;;;;4.35;2.42;;;32.70;77.40;;;;;;5059960;28;20069;-75
2021/07/19 10:58:48;;;;;;;3.42;2.70;;;32.80;76.80;;;;;;5061592;28;20049;-75
2021/07/19 11:01:21;;;;;;;2.60;2.30;;;32.80;76.60;;;;;;5040739;28;20147;-75
2021/07/19 11:03:53;;;;;;;3.80;2.33;;;32.60;75.90;;;;;;5058864;28;20886;-75
2021/07/19 11:06:32;;;;;;;3.00;2.38;;;32.60;76.00;;;;;;5047346;28;20052;-75
2021/07/19 11:09:02;;;;;;;4.80;2.90;;;32.70;76.40;;;;;;5059971;28;20036;-75
2021/07/19 11:11:33;;;;;;;3.15;2.60;;;32.80;76.30;;;;;;5055769;28;20436;-75
2021/07/19 11:14:04;;;;;;;2.85;2.63;;;32.70;76.20;;;;;;5058619;28;20040;-75
2021/07/19 11:16:41;;;;;;;3.00;2.63;;;32.70;75.70;;;;;;5042355;28;20052;-74
2021/07/19 11:19:11;;;;;;;3.17;2.60;;;32.60;75.60;;;;;;5063932;28;20094;-75
2021/07/19 11:21:41;;;;;;;6.05;2.78;;;32.60;76.60;;;;;;5062543;28;20066;-75
2021/07/19 11:24:15;;;;;;;3.58;2.40;;;32.70;76.30;;;;;;5061886;28;20044;-75
2021/07/19 11:26:49;;;;;;;2.97;2.30;;;32.90;75.60;;;;;;5026768;28;20094;-75
2021/07/19 11:29:32;;;;;;;4.32;2.70;;;33.20;75.90;;;;;;5062089;28;20059;-75
2021/07/19 11:32:18;;;;;;;4.75;2.50;;;33.20;75.40;;;;;;5061208;28;20049;-75
2021/07/19 11:34:49;;;;;;;3.03;2.55;;;33.40;75.50;;;;;;5057819;28;20544;-75
2021/07/19 11:37:18;;;;;;;3.13;2.40;;;33.30;74.90;;;;;;5043979;28;20044;-75
2021/07/19 11:39:51;;;;;;;5.53;2.97;;;33.30;75.00;;;;;;5059298;28;20087;-75
2021/07/19 11:42:29;;;;;;;2.83;2.63;;;33.20;74.80;;;;;;5060987;28;20127;-75
2021/07/19 11:45:06;;;;;;;2.53;2.28;;;33.30;74.80;;;;;;5060158;28;20052;-75
2021/07/19 11:47:41;;;;;;;3.90;2.53;;;33.30;74.40;;;;;;5059843;28;20044;-74
2021/07/19 11:50:12;;;;;;;2.88;2.63;;;33.30;74.20;;;;;;5025843;28;20044;-75
2021/07/19 11:52:41;;;;;;;3.70;2.67;;;33.40;74.60;;;;;;5055284;28;20040;-75
2021/07/19 11:55:12;;;;;;;5.05;2.60;;;33.70;74.40;;;;;;5056268;28;20040;-75
2021/07/19 11:57:45;;;;;;;5.57;3.05;;;34.00;74.10;;;;;;5043973;28;20507;-75
2021/07/19 12:00:25;;;;;;;3.33;2.50;;;34.00;74.10;;;;;;5059738;28;20044;-75
2021/07/19 12:02:58;;;;;;;2.90;2.20;;;33.90;73.70;;;;;;5041431;28;20135;-75
2021/07/19 12:05:29;;;;;;;2.83;2.42;;;33.50;74.20;;;;;;5060268;28;20493;-74
2021/07/19 12:08:02;;;;;;;4.18;2.40;;;33.70;74.30;;;;;;5056274;28;20044;-75
2021/07/19 12:10:33;;;;;;;3.80;2.50;;;33.90;74.50;;;;;;5052691;28;20751;-75
2021/07/19 12:13:09;;;;;;;3.00;2.70;;;34.10;73.90;;;;;;5057690;28;20044;-75
2021/07/19 12:15:38;;;;;;;;;;;34.20;73.40;;;;;;5042267;28;20488;-75
2021/07/19 12:18:06;;;;;;;5.28;2.70;;;34.40;72.90;;;;;;5044822;28;19924;-74
2021/07/19 12:20:36;;;;;;;3.75;2.63;;;34.60;72.50;;;;;;5061748;28;20052;-75
2021/07/19 12:23:04;;;;;;;3.67;2.47;;;34.60;72.90;;;;;;5061442;28;20089;-74
2021/07/19 12:25:33;;;;;;;3.45;2.80;;;34.70;72.30;;;;;;5059708;28;20041;-75
2021/07/19 12:28:02;;;;;;;6.32;3.08;;;34.90;72.50;;;;;;5060285;28;20119;-75
2021/07/19 12:30:31;;;;;;;7.85;2.83;;;34.80;72.00;;;;;;5048846;28;20123;-75
2021/07/19 12:33:00;;;;;;;3.35;2.70;;;34.80;72.50;;;;;;5059908;28;20389;-75
2021/07/19 12:35:31;;;;;;;3.30;2.65;;;35.00;71.90;;;;;;5040680;28;20511;-75
2021/07/19 12:38:01;;;;;;;4.45;2.42;;;34.80;71.60;;;;;;5058280;28;20048;-75
2021/07/19 12:40:29;;;;;;;2.88;2.58;;;34.70;72.30;;;;;;5043075;28;20051;-75
2021/07/19 12:42:58;;;;;;;3.80;2.83;;;34.90;71.50;;;;;;5062477;28;20044;-75
2021/07/19 12:45:27;;;;;;;4.60;3.10;;;34.90;71.80;;;;;;5043507;28;20052;-75
2021/07/19 12:47:57;;;;;;;3.60;2.65;;;35.10;71.70;;;;;;5059134;28;20106;-75
2021/07/19 12:50:25;;;;;;;2.92;2.63;;;35.40;71.60;;;;;;5029709;28;20049;-75
2021/07/19 12:52:53;;;;;;;5.22;2.75;;;35.30;69.90;;;;;;5041948;28;20044;-75
2021/07/19 12:55:24;;;;;;;4.20;2.65;;;35.20;70.30;;;;;;5039108;28;20502;-75
2021/07/19 12:57:54;;;;;;;3.47;2.55;;;35.20;69.70;;;;;;5041044;28;20048;-75
2021/07/19 13:00:25;;;;;;;2.92;2.60;;;34.90;70.00;;;;;;5039104;28;20068;-75
2021/07/19 13:03:02;;;;;;;3.65;2.50;;;34.80;70.20;;;;;;5061914;28;20036;-75
2021/07/19 13:05:31;;;;;;;3.28;2.53;;;34.80;71.00;;;;;;5061971;28;20070;-75
2021/07/19 13:07:59;;;;;;;3.90;2.45;;;35.10;71.50;;;;;;5047184;28;20036;-75
2021/07/19 13:10:29;;;;;;;2.78;2.58;;;34.90;70.20;;;;;;5064121;28;20128;-74
2021/07/19 13:13:02;;;;;;;3.05;2.25;;;34.90;70.60;;;;;;5056253;28;20124;-75
2021/07/19 13:15:33;;;;;;;2.58;2.33;;;35.30;69.90;;;;;;5044249;28;20487;-75